Time,TemperatureF,DewpointF,PressureIn,WindDirection,WindDirectionDegrees,WindSpeedMPH,WindSpeedGustMPH,Humidity,HourlyPrecipIn,Conditions,Clouds,dailyrainin,SoftwareType,DateUTC
2013-07-02 00:12:00,71.3,71.0,30.06,ENE,78,0.0,2.0,98,0.00,,,0.43,weatherlink.com 1.10,2013-07-02 04:12:00,
2013-07-02 00:27:00,71.3,71.0,30.06,ENE,71,0.0,2.0,98,0.00,,,0.00,weatherlink.com 1.10,2013-07-02 04:27:00,
2013-07-02 00:42:00,71.3,71.0,30.06,ENE,72,0.0,3.0,98,0.00,,,0.00,weatherlink.com 1.10,2013-07-02 04:42:00,
2013-07-02 00:57:00,71.3,71.0,30.06,ENE,72,0.0,2.0,98,0.01,,,0.01,weatherlink.com 1.10,2013-07-02 04:57:00,
2013-07-02 01:12:00,71.3,71.0,30.07,ENE,72,0.0,2.0,98,0.01,,,0.01,weatherlink.com 1.10,2013-07-02 05:12:00,
2013-07-02 01:27:00,71.3,71.0,30.06,ENE,66,0.0,2.0,98,0.01,,,0.01,weatherlink.com 1.10,2013-07-02 05:27:00,
2013-07-02 01:42:00,71.3,71.0,30.07,NE,49,0.0,4.0,98,0.01,,,0.01,weatherlink.com 1.10,2013-07-02 05:42:00,
2013-07-02 01:57:00,71.3,71.0,30.07,ENE,61,0.0,2.0,98,0.00,,,0.01,weatherlink.com 1.10,2013-07-02 05:57:00,
2013-07-02 02:12:00,71.4,71.0,30.07,NE,42,1.0,3.0,98,0.00,,,0.01,weatherlink.com 1.10,2013-07-02 06:12:00,
2013-07-02 02:27:00,71.4,71.0,30.07,NE,42,0.0,1.0,98,0.00,,,0.01,weatherlink.com 1.10,2013-07-02 06:27:00,
2013-07-02 02:42:00,71.4,71.0,30.06,North,10,0.0,2.0,98,0.00,,,0.01,weatherlink.com 1.10,2013-07-02 06:42:00,
2013-07-02 02:57:00,71.4,71.0,30.06,NNE,28,0.0,3.0,98,0.00,,,0.01,weatherlink.com 1.10,2013-07-02 06:57:00,
2013-07-02 03:12:00,71.3,71.0,30.06,NE,34,0.0,2.0,98,0.00,,,0.01,weatherlink.com 1.10,2013-07-02 07:12:00,
2013-07-02 03:27:00,71.3,71.0,30.06,NE,34,0.0,1.0,98,0.00,,,0.01,weatherlink.com 1.10,2013-07-02 07:27:00,
2013-07-02 03:42:00,71.2,71.0,30.07,NNE,25,0.0,3.0,98,0.00,,,0.01,weatherlink.com 1.10,2013-07-02 07:42:00,
2013-07-02 03:57:00,71.3,71.0,30.07,NNE,16,1.0,3.0,98,0.00,,,0.01,weatherlink.com 1.10,2013-07-02 07:57:00,
2013-07-02 04:12:00,71.3,71.0,30.07,North,360,0.0,2.0,98,0.00,,,0.01,weatherlink.com 1.10,2013-07-02 08:12:00,
2013-07-02 04:27:00,71.3,71.0,30.07,NE,40,0.0,2.0,98,0.00,,,0.01,weatherlink.com 1.10,2013-07-02 08:27:00,
2013-07-02 04:42:00,71.3,71.0,30.07,East,97,0.0,2.0,98,0.00,,,0.01,weatherlink.com 1.10,2013-07-02 08:42:00,
2013-07-02 04:57:00,71.2,71.0,30.07,East,93,0.0,1.0,98,0.00,,,0.01,weatherlink.com 1.10,2013-07-02 08:57:00,
2013-07-02 05:12:00,71.2,71.0,30.08,ENE,73,0.0,1.0,98,0.00,,,0.01,weatherlink.com 1.10,2013-07-02 09:12:00,
2013-07-02 05:27:00,71.2,71.0,30.08,ENE,73,0.0,1.0,98,0.01,,,0.02,weatherlink.com 1.10,2013-07-02 09:27:00,
2013-07-02 05:42:00,71.2,71.0,30.09,ENE,73,0.0,0.0,98,0.01,,,0.02,weatherlink.com 1.10,2013-07-02 09:42:00,
2013-07-02 05:57:00,71.2,71.0,30.09,ENE,67,0.0,3.0,98,0.01,,,0.02,weatherlink.com 1.10,2013-07-02 09:57:00,
2013-07-02 06:12:00,71.2,71.0,30.09,ENE,67,0.0,1.0,98,0.01,,,0.02,weatherlink.com 1.10,2013-07-02 10:12:00,
2013-07-02 06:27:00,71.3,71.0,30.10,ENE,57,0.0,1.0,98,0.00,,,0.02,weatherlink.com 1.10,2013-07-02 10:27:00,
2013-07-02 06:42:00,71.3,71.0,30.09,ENE,57,0.0,0.0,98,0.00,,,0.02,weatherlink.com 1.10,2013-07-02 10:42:00,
2013-07-02 06:57:00,71.4,71.0,30.10,ENE,57,0.0,0.0,98,0.00,,,0.02,weatherlink.com 1.10,2013-07-02 10:57:00,
2013-07-02 07:12:00,71.5,71.0,30.11,ENE,57,0.0,1.0,98,0.00,,,0.02,weatherlink.com 1.10,2013-07-02 11:12:00,
2013-07-02 07:27:00,71.6,71.0,30.11,North,360,0.0,1.0,98,0.00,,,0.02,weatherlink.com 1.10,2013-07-02 11:27:00,
2013-07-02 07:42:00,71.7,71.0,30.11,North,360,0.0,1.0,98,0.00,,,0.02,weatherlink.com 1.10,2013-07-02 11:42:00,
2013-07-02 07:57:00,71.8,71.0,30.11,NW,323,0.0,1.0,98,0.00,,,0.02,weatherlink.com 1.10,2013-07-02 11:57:00,
2013-07-02 08:13:00,72.1,72.0,30.11,NW,323,0.0,1.0,98,0.00,,,0.02,weatherlink.com 1.10,2013-07-02 12:13:00,
2013-07-02 08:28:00,72.5,72.0,30.12,WNW,290,1.0,3.0,98,0.00,,,0.02,weatherlink.com 1.10,2013-07-02 12:28:00,
2013-07-02 08:43:00,73.0,72.0,30.12,NNE,14,0.0,3.0,98,0.00,,,0.02,weatherlink.com 1.10,2013-07-02 12:43:00,
2013-07-02 08:58:00,73.3,72.0,30.12,NW,305,2.0,4.0,97,0.00,,,0.02,weatherlink.com 1.10,2013-07-02 12:58:00,
2013-07-02 09:13:00,73.5,72.0,30.12,NNE,24,1.0,2.0,96,0.00,,,0.02,weatherlink.com 1.10,2013-07-02 13:13:00,
2013-07-02 09:28:00,73.3,72.0,30.12,ENE,57,1.0,4.0,96,0.00,,,0.02,weatherlink.com 1.10,2013-07-02 13:28:00,
2013-07-02 09:43:00,73.5,72.0,30.12,NE,35,2.0,3.0,96,0.00,,,0.02,weatherlink.com 1.10,2013-07-02 13:43:00,
2013-07-02 09:58:00,73.7,72.0,30.12,West,275,3.0,3.0,95,0.00,,,0.02,weatherlink.com 1.10,2013-07-02 13:58:00,
2013-07-02 10:13:00,73.9,72.0,30.12,NW,313,0.0,2.0,95,0.00,,,0.02,weatherlink.com 1.10,2013-07-02 14:13:00,
2013-07-02 10:28:00,73.6,72.0,30.13,North,9,0.0,6.0,95,0.00,,,0.02,weatherlink.com 1.10,2013-07-02 14:28:00,
2013-07-02 10:43:00,73.9,72.0,30.13,NW,324,0.0,7.0,95,0.00,,,0.02,weatherlink.com 1.10,2013-07-02 14:43:00,
2013-07-02 10:58:00,74.1,72.0,30.14,East,92,0.0,4.0,94,0.00,,,0.02,weatherlink.com 1.10,2013-07-02 14:58:00,
2013-07-02 11:13:00,74.2,72.0,30.14,ENE,71,0.0,4.0,94,0.00,,,0.02,weatherlink.com 1.10,2013-07-02 15:13:00,
2013-07-02 11:28:00,74.5,72.0,30.14,West,265,1.0,4.0,93,0.00,,,0.02,weatherlink.com 1.10,2013-07-02 15:28:00,
2013-07-02 11:43:00,75.2,73.0,30.14,ENE,69,0.0,3.0,92,0.00,,,0.02,weatherlink.com 1.10,2013-07-02 15:43:00,
2013-07-02 11:58:00,75.7,73.0,30.13,NNE,19,0.0,4.0,91,0.00,,,0.02,weatherlink.com 1.10,2013-07-02 15:58:00,
2013-07-02 12:13:00,76.3,73.0,30.14,North,5,0.0,3.0,90,0.00,,,0.02,weatherlink.com 1.10,2013-07-02 16:13:00,
2013-07-02 12:28:00,76.5,73.0,30.14,ENE,66,3.0,4.0,89,0.00,,,0.02,weatherlink.com 1.10,2013-07-02 16:28:00,
2013-07-02 12:43:00,76.4,73.0,30.14,NE,49,1.0,3.0,90,0.00,,,0.02,weatherlink.com 1.10,2013-07-02 16:43:00,
2013-07-02 12:58:00,76.7,74.0,30.14,WNW,290,1.0,4.0,90,0.00,,,0.02,weatherlink.com 1.10,2013-07-02 16:58:00,
2013-07-02 13:13:00,77.1,74.0,30.13,WNW,300,0.0,4.0,89,0.00,,,0.02,weatherlink.com 1.10,2013-07-02 17:13:00,
2013-07-02 13:28:00,77.9,74.0,30.13,WSW,249,0.0,4.0,87,0.00,,,0.02,weatherlink.com 1.10,2013-07-02 17:28:00,
2013-07-02 13:43:00,77.5,74.0,30.13,NNE,33,1.0,3.0,89,0.00,,,0.02,weatherlink.com 1.10,2013-07-02 17:43:00,
2013-07-02 13:58:00,77.4,74.0,30.12,ENE,61,0.0,3.0,90,0.00,,,0.02,weatherlink.com 1.10,2013-07-02 17:58:00,
2013-07-02 14:13:00,77.5,74.0,30.12,NE,45,1.0,2.0,89,0.00,,,0.02,weatherlink.com 1.10,2013-07-02 18:13:00,
2013-07-02 14:28:00,78.4,75.0,30.11,ENE,60,1.0,5.0,88,0.00,,,0.02,weatherlink.com 1.10,2013-07-02 18:28:00,
2013-07-02 14:43:00,79.6,75.0,30.11,SW,223,1.0,7.0,85,0.00,,,0.02,weatherlink.com 1.10,2013-07-02 18:43:00,
2013-07-02 14:58:00,79.6,75.0,30.11,WNW,290,1.0,6.0,86,0.00,,,0.02,weatherlink.com 1.10,2013-07-02 18:58:00,
2013-07-02 15:13:00,79.1,75.0,30.11,North,355,1.0,3.0,86,0.00,,,0.02,weatherlink.com 1.10,2013-07-02 19:13:00,
2013-07-02 15:28:00,79.3,75.0,30.11,NNE,12,0.0,6.0,85,0.00,,,0.02,weatherlink.com 1.10,2013-07-02 19:28:00,
2013-07-02 15:43:00,79.4,75.0,30.11,SSW,196,1.0,3.0,85,0.00,,,0.02,weatherlink.com 1.10,2013-07-02 19:43:00,
2013-07-02 15:58:00,79.8,75.0,30.10,NE,53,1.0,3.0,84,0.00,,,0.02,weatherlink.com 1.10,2013-07-02 19:58:00,
2013-07-02 16:13:00,80.0,74.0,30.10,WNW,298,1.0,7.0,83,0.00,,,0.02,weatherlink.com 1.10,2013-07-02 20:13:00,
2013-07-02 16:28:00,79.6,74.0,30.10,NW,315,0.0,3.0,83,0.00,,,0.02,weatherlink.com 1.10,2013-07-02 20:28:00,
2013-07-02 16:43:00,80.3,75.0,30.09,WSW,240,2.0,6.0,84,0.00,,,0.02,weatherlink.com 1.10,2013-07-02 20:43:00,
2013-07-02 16:58:00,80.2,75.0,30.09,East,85,2.0,5.0,83,0.00,,,0.02,weatherlink.com 1.10,2013-07-02 20:58:00,
2013-07-02 17:13:00,80.6,75.0,30.10,WSW,252,1.0,6.0,82,0.00,,,0.02,weatherlink.com 1.10,2013-07-02 21:13:00,
2013-07-02 17:28:00,79.9,75.0,30.10,NNE,17,0.0,4.0,84,0.00,,,0.02,weatherlink.com 1.10,2013-07-02 21:28:00,
2013-07-02 17:43:00,80.6,75.0,30.10,WSW,253,0.0,7.0,84,0.00,,,0.02,weatherlink.com 1.10,2013-07-02 21:43:00,
2013-07-02 17:59:00,80.4,75.0,30.10,WNW,291,0.0,8.0,83,0.00,,,0.02,weatherlink.com 1.10,2013-07-02 21:59:00,
2013-07-02 18:14:00,79.0,74.0,30.11,North,360,0.0,4.0,85,0.00,,,0.02,weatherlink.com 1.10,2013-07-02 22:14:00,
2013-07-02 18:29:00,77.7,74.0,30.12,ENE,72,0.0,3.0,89,0.01,,,0.03,weatherlink.com 1.10,2013-07-02 22:29:00,
2013-07-02 18:44:00,76.8,74.0,30.13,ENE,73,0.0,0.0,92,0.01,,,0.03,weatherlink.com 1.10,2013-07-02 22:44:00,
2013-07-02 18:59:00,76.7,75.0,30.12,ENE,73,0.0,0.0,93,0.01,,,0.03,weatherlink.com 1.10,2013-07-02 22:59:00,
2013-07-02 19:14:00,76.4,74.0,30.13,ENE,68,0.0,1.0,93,0.01,,,0.03,weatherlink.com 1.10,2013-07-02 23:14:00,
2013-07-02 19:29:00,76.2,74.0,30.13,ENE,67,0.0,1.0,94,0.00,,,0.03,weatherlink.com 1.10,2013-07-02 23:29:00,
2013-07-02 19:44:00,75.9,74.0,30.13,ENE,67,0.0,0.0,94,0.00,,,0.03,weatherlink.com 1.10,2013-07-02 23:44:00,
2013-07-02 19:59:00,75.5,74.0,30.13,ENE,67,0.0,1.0,94,0.00,,,0.03,weatherlink.com 1.10,2013-07-02 23:59:00,
2013-07-02 20:14:00,75.1,74.0,30.13,ENE,67,0.0,1.0,95,0.00,,,0.03,weatherlink.com 1.10,2013-07-03 00:14:00,
2013-07-02 20:29:00,74.7,73.0,30.14,ENE,67,0.0,0.0,95,0.00,,,0.03,weatherlink.com 1.10,2013-07-03 00:29:00,
2013-07-02 20:44:00,74.5,73.0,30.14,ENE,67,0.0,0.0,95,0.00,,,0.03,weatherlink.com 1.10,2013-07-03 00:44:00,
2013-07-02 20:59:00,74.3,73.0,30.15,ENE,67,0.0,0.0,96,0.00,,,0.03,weatherlink.com 1.10,2013-07-03 00:59:00,
2013-07-02 21:14:00,74.2,73.0,30.16,ENE,67,0.0,2.0,96,0.00,,,0.03,weatherlink.com 1.10,2013-07-03 01:14:00,
2013-07-02 21:29:00,74.0,73.0,30.16,ENE,67,0.0,0.0,96,0.00,,,0.03,weatherlink.com 1.10,2013-07-03 01:29:00,
2013-07-02 21:44:00,73.8,73.0,30.17,ENE,67,0.0,1.0,96,0.00,,,0.03,weatherlink.com 1.10,2013-07-03 01:44:00,
2013-07-02 21:59:00,73.7,73.0,30.17,ENE,67,0.0,0.0,96,0.00,,,0.03,weatherlink.com 1.10,2013-07-03 01:59:00,
2013-07-02 22:14:00,73.6,72.0,30.17,ENE,67,0.0,1.0,96,0.00,,,0.03,weatherlink.com 1.10,2013-07-03 02:14:00,
2013-07-02 22:59:00,73.3,72.0,30.16,ENE,67,0.0,0.0,96,0.00,,,0.03,weatherlink.com 1.10,2013-07-03 02:59:00,
2013-07-02 23:14:00,73.3,72.0,30.16,ENE,67,0.0,2.0,96,0.00,,,0.03,weatherlink.com 1.10,2013-07-03 03:14:00,
2013-07-02 23:29:00,73.3,72.0,30.16,West,267,0.0,4.0,96,0.00,,,0.03,weatherlink.com 1.10,2013-07-03 03:29:00,
2013-07-02 23:44:00,73.4,72.0,30.16,NW,307,0.0,5.0,95,0.00,,,0.03,weatherlink.com 1.10,2013-07-03 03:44:00,
2013-07-02 23:59:00,73.6,72.0,30.16,WNW,284,2.0,8.0,95,0.00,,,0.03,weatherlink.com 1.10,2013-07-03 03:59:00,